MET'MAP v2.0
soon released !

Expected late october,
this new version will be
more efficient, smarter,
and hosted on a brand new
server x3 powerfull...
...and still free !


Not compatible ?
Try the mobile version !

LOG IN : | Subscribe | Disclaimer | Who is Orbifly ? |
ICAO code :
Legend : VFR Marginal VFR IFR Intensive IFR Very Intensive IFR
Visi :
Ceiling :
>= 8 km
>= 3000ft
5 to 8 km
1000 to 3000 ft
1500m to 5 km
500 to 1000 ft
800 to 1500m
200 to 500 ft
< 800m
< 200 ft

METAR - LERT Rota Navy - 04 Dec 2020 14:39 UTC - Data Source NOAA   


- Airport Elevation : 86 ft
- No reported NOTAMs.


LERT - Rota Navy

Latest METAR recorded : 2015/08/11 08:00 LERT 110800Z 21004KT 8000 NSC 22/20 Q1014 NOSIG
TAF TAF LERT
Valid from the 04 at 09:00 until the 05 at 09:00 UTC


040800Z 0409/0509 29016KT 9999 SCT025 SCT035 TX16/0411Z TN07/0507Z
TEMPO 0409/0420 29020G32KT
PROB40
TEMPO 0409/0418 4000 RA
PROB40
TEMPO 0504/0509 35008KT

Source NOAA


MET'MAP, your aeronautical weather chart ! - Copyright ORBIFLY December 2007

Programming & Development : Alexandra Zaïnal
Co-Developer : Marc-Olivier Méhu
Technical & hardware support : Manuel Goepfert
Concept & Financing : Baudouin d'Aumeries